Las Cruces International Airport
KLRU : now visible

Airfield :











YOU CAN JOIN US ON...

 
LOGIN :

Register | Disclaimer

   EN    FR    IT 

 









Legend :    VFR   Marginal VFR   IFR   Intensive IFR   Very Intensive IFR
Visi :
Ceiling :
>= 8 km
>= 3000ft
5 to 8 km
1000 to 3000 ft
1500m to 5 km
500 to 1000 ft
800 to 1500m
200 to 500 ft
< 800m
< 200 ft
Symbols :   Thunderstorms  Fog  Heavy snow  Heavy precipitations  Wind > 20 kt






- Airport Elevation : 4456 ft
- IATA code : LRU


KLRU - Las Cruces International

CURRENT METAR :
  • 170415Z AUTO 27017G23KT 10SM CLR 14/M06 A3001 RMK AO2 T01361060

EXPIRED METARs :
  • 170355Z AUTO 27019G26KT 10SM CLR 14/M06 A3000 RMK AO2 T01421062
  • 170335Z AUTO 27023G28KT 10SM CLR 15/M06 A3000 RMK AO2 T01461063
  • 170315Z AUTO 26022G28KT 10SM CLR 15/M06 A2999 RMK AO2 T01471063
  • 170255Z AUTO 26021G26KT 10SM CLR 15/M06 A2999 RMK AO2 T01521065
  • 170235Z AUTO 25016G21KT 10SM CLR 15/M07 A3000 RMK AO2 T01521072
  • 170215Z AUTO 25012KT 10SM CLR 15/M08 A3000 RMK AO2 T01531082
  • 170155Z AUTO 24009KT 10SM CLR 16/M08 A3000 RMK AO2 T01551084
  • 170135Z AUTO 22011KT 10SM CLR 16/M09 A3000 RMK AO2 T01601090

TAF KLRU
Valid from the 17 at 00:00 until the 18 at 00:00 UTC


162339Z 1700/1724 24012G22KT P6SM FEW250
FM170200 26008KT P6SM FEW250
FM172000 26013G20KT P6SM SCT250



MET'MAP, your aeronautical weather chart ! - Copyright ORBIFLY December 2007 - Disclaimer

ORBIFLY MET'MAP TEAM :

Programming & Development : Alexandra Zaïnal
Concept & original design : Baudouin d'Aumeries
Assistance for programming : Marc-Olivier Méhu
Technical & hardware support : Manuel Goepfert

Contact : metmap@orbifly.com




SOURCES & CREDITS :

   NOAA       Earth
Advisory